createdAt,value
2017-11-26T00:00:36.367Z,7.07
2017-11-26T00:01:36.296Z,7.12
2017-11-26T00:02:36.210Z,7.13
2017-11-26T00:03:36.121Z,7.20
2017-11-26T00:04:36.018Z,7.05
2017-11-26T00:05:35.938Z,6.94
2017-11-26T00:06:35.854Z,6.95
2017-11-26T00:07:35.758Z,7.08
2017-11-26T00:08:35.673Z,6.90
2017-11-26T00:09:35.585Z,6.90
2017-11-26T00:10:35.489Z,6.97
2017-11-26T00:11:35.402Z,7.02
2017-11-26T00:12:35.310Z,6.84
2017-11-26T00:13:35.229Z,6.90
2017-11-26T00:14:35.136Z,7.04
2017-11-26T00:15:35.057Z,7.07
2017-11-26T00:16:34.969Z,7.01
2017-11-26T00:17:34.873Z,6.99
2017-11-26T00:18:34.785Z,6.89
2017-11-26T00:19:34.699Z,6.81
2017-11-26T00:20:34.613Z,6.83
2017-11-26T00:21:34.526Z,6.89
2017-11-26T00:22:34.439Z,6.71
2017-11-26T00:23:34.338Z,6.62
2017-11-26T00:24:34.253Z,6.83
2017-11-26T00:25:34.162Z,6.89
2017-11-26T00:26:34.065Z,6.83
2017-11-26T00:27:34.017Z,6.81
2017-11-26T00:28:33.909Z,6.71
2017-11-26T00:29:33.807Z,6.83
2017-11-26T00:30:33.728Z,6.80
2017-11-26T00:31:33.632Z,6.73
2017-11-26T00:32:33.542Z,6.62
2017-11-26T00:33:33.446Z,6.81
2017-11-26T00:34:33.360Z,6.86
2017-11-26T00:35:33.276Z,6.86
2017-11-26T00:36:33.184Z,6.73
2017-11-26T00:37:33.099Z,6.83
2017-11-26T00:38:33.006Z,6.83
2017-11-26T00:39:32.918Z,6.87
2017-11-26T00:40:32.833Z,6.90
2017-11-26T00:41:32.737Z,6.84
2017-11-26T00:42:32.651Z,6.87
2017-11-26T00:43:32.574Z,6.86
2017-11-26T00:44:32.490Z,6.90
2017-11-26T00:45:32.390Z,7.02
2017-11-26T00:46:32.298Z,6.86
2017-11-26T00:47:32.925Z,6.87
2017-11-26T00:48:32.122Z,6.86
2017-11-26T00:49:32.072Z,7.02
2017-11-26T00:50:31.958Z,6.99
2017-11-26T00:51:31.861Z,6.84
2017-11-26T00:52:31.768Z,6.66
2017-11-26T00:53:31.684Z,6.81
2017-11-26T00:54:31.592Z,6.63
2017-11-26T00:55:31.499Z,6.69
2017-11-26T00:56:31.413Z,6.80
2017-11-26T00:57:31.320Z,6.72
2017-11-26T00:58:31.279Z,6.87
2017-11-26T00:59:31.157Z,6.68
2017-11-26T01:00:31.059Z,6.83
2017-11-26T01:01:30.974Z,6.94
2017-11-26T01:02:30.893Z,6.83
2017-11-26T01:03:30.795Z,6.73
2017-11-26T01:04:30.703Z,6.83
2017-11-26T01:05:30.617Z,6.90
2017-11-26T01:06:30.542Z,6.68
2017-11-26T01:07:30.443Z,6.86
2017-11-26T01:08:30.354Z,6.79
2017-11-26T01:09:30.261Z,6.83
2017-11-26T01:10:30.175Z,6.83
2017-11-26T01:11:30.118Z,6.77
2017-11-26T01:12:29.999Z,6.81
2017-11-26T01:13:29.914Z,6.81
2017-11-26T01:14:29.830Z,6.87
2017-11-26T01:15:29.732Z,6.90
2017-11-26T01:16:29.645Z,6.89
2017-11-26T01:17:29.554Z,6.98
2017-11-26T01:18:29.466Z,6.79
2017-11-26T01:19:29.386Z,6.86
2017-11-26T01:20:29.288Z,6.68
2017-11-26T01:21:29.207Z,6.61
2017-11-26T01:22:29.111Z,6.71
2017-11-26T01:23:29.025Z,6.83
2017-11-26T01:24:28.939Z,6.72
2017-11-26T01:25:28.862Z,6.62
2017-11-26T01:26:28.766Z,6.51
2017-11-26T01:27:28.673Z,6.38
2017-11-26T01:28:28.585Z,6.44
2017-11-26T01:29:28.506Z,6.62
2017-11-26T01:30:28.413Z,6.72
2017-11-26T01:31:28.326Z,6.79
2017-11-26T01:32:28.247Z,6.95
2017-11-26T01:33:28.149Z,7.01
2017-11-26T01:34:28.057Z,6.83
2017-11-26T01:35:27.964Z,6.83
2017-11-26T01:36:27.868Z,6.81
2017-11-26T01:37:27.787Z,6.79
2017-11-26T01:38:27.695Z,6.81
2017-11-26T01:39:27.609Z,6.72
2017-11-26T01:40:27.527Z,6.86
2017-11-26T01:41:27.433Z,6.90
2017-11-26T01:42:27.342Z,6.79
2017-11-26T01:43:27.275Z,6.87
2017-11-26T01:44:27.164Z,6.87
2017-11-26T01:45:27.077Z,6.77
2017-11-26T01:46:27.485Z,6.86
2017-11-26T01:47:26.914Z,6.79
2017-11-26T01:48:26.812Z,6.84
2017-11-26T01:49:26.738Z,6.69
2017-11-26T01:50:26.630Z,6.79
2017-11-26T01:51:26.541Z,6.83
2017-11-26T01:52:26.457Z,6.81
2017-11-26T01:53:26.377Z,6.90
2017-11-26T01:54:26.291Z,6.69
2017-11-26T01:55:26.202Z,6.63
2017-11-26T01:56:26.099Z,6.63
2017-11-26T01:57:26.012Z,6.69
2017-11-26T01:58:25.926Z,6.83
2017-11-26T01:59:25.835Z,6.71
2017-11-26T02:00:25.748Z,6.68
2017-11-26T02:01:25.661Z,6.50
2017-11-26T02:02:25.573Z,6.63
2017-11-26T02:03:25.483Z,6.68
2017-11-26T02:04:25.395Z,6.61
2017-11-26T02:05:25.307Z,6.40
2017-11-26T02:06:25.211Z,6.43
2017-11-26T02:07:25.123Z,6.43
2017-11-26T02:08:25.028Z,6.43
2017-11-26T02:09:24.953Z,6.46
2017-11-26T02:10:24.873Z,6.65
2017-11-26T02:11:24.764Z,6.62
2017-11-26T02:12:24.680Z,6.48
2017-11-26T02:13:24.591Z,6.47
2017-11-26T02:14:24.500Z,6.46
2017-11-26T02:15:24.410Z,6.35
2017-11-26T02:16:24.326Z,6.41
2017-11-26T02:17:24.233Z,6.35
2017-11-26T02:18:24.139Z,6.43
2017-11-26T02:19:24.052Z,6.46
2017-11-26T02:20:23.965Z,6.38
2017-11-26T02:21:23.877Z,6.41
2017-11-26T02:22:23.787Z,6.53
2017-11-26T02:23:23.700Z,6.22
2017-11-26T02:24:23.614Z,6.33
2017-11-26T02:25:23.525Z,6.47
2017-11-26T02:26:23.428Z,6.32
2017-11-26T02:27:23.340Z,6.41
2017-11-26T02:28:23.248Z,6.47
2017-11-26T02:29:23.175Z,6.41
2017-11-26T02:30:23.084Z,6.33
2017-11-26T02:31:22.985Z,6.32
2017-11-26T02:32:22.893Z,6.36
2017-11-26T02:33:22.807Z,6.30
2017-11-26T02:34:22.710Z,6.16
2017-11-26T02:35:22.624Z,6.03
2017-11-26T02:36:22.537Z,5.93
2017-11-26T02:37:22.463Z,5.85
2017-11-26T02:38:22.359Z,6.21
2017-11-26T02:39:22.269Z,6.00
2017-11-26T02:40:22.178Z,5.82
2017-11-26T02:41:22.088Z,6.09
2017-11-26T02:42:22.005Z,6.13
2017-11-26T02:43:21.904Z,5.92
2017-11-26T02:44:21.819Z,5.91
2017-11-26T02:45:22.095Z,5.95
2017-11-26T02:46:21.638Z,5.93
2017-11-26T02:47:21.553Z,5.91
2017-11-26T02:48:21.467Z,5.93
2017-11-26T02:49:21.367Z,5.81
2017-11-26T02:50:21.297Z,5.92
2017-11-26T02:51:21.188Z,5.86
2017-11-26T02:52:21.103Z,5.95
2017-11-26T02:53:21.002Z,5.96
2017-11-26T02:54:20.928Z,6.21
2017-11-26T02:55:20.833Z,6.11
2017-11-26T02:56:20.745Z,5.88
2017-11-26T02:57:20.651Z,5.89
2017-11-26T02:58:20.554Z,6.07
2017-11-26T02:59:20.473Z,6.09
2017-11-26T03:00:20.383Z,6.16
2017-11-26T03:01:20.300Z,6.13
2017-11-26T03:02:20.244Z,6.48
2017-11-26T03:03:20.108Z,6.19
2017-11-26T03:04:20.032Z,6.14
2017-11-26T03:05:19.945Z,5.95
2017-11-26T03:06:19.840Z,5.91
2017-11-26T03:07:19.757Z,6.07
2017-11-26T03:08:19.661Z,6.11
2017-11-26T03:09:19.568Z,6.30
2017-11-26T03:10:19.487Z,6.43
2017-11-26T03:11:19.411Z,6.44
2017-11-26T03:12:19.319Z,6.28
2017-11-26T03:13:19.221Z,6.35
2017-11-26T03:14:19.128Z,6.46
2017-11-26T03:15:19.041Z,6.38
2017-11-26T03:16:18.948Z,6.46
2017-11-26T03:17:18.859Z,6.47
2017-11-26T03:18:18.771Z,6.51
2017-11-26T03:19:18.693Z,6.40
2017-11-26T03:20:18.597Z,6.40
2017-11-26T03:21:18.510Z,6.36
2017-11-26T03:22:18.415Z,6.43
2017-11-26T03:23:18.329Z,6.40
2017-11-26T03:24:18.236Z,6.35
2017-11-26T03:25:18.147Z,6.04
2017-11-26T03:26:18.061Z,6.16
2017-11-26T03:27:17.977Z,6.11
2017-11-26T03:28:17.887Z,6.07
2017-11-26T03:29:17.795Z,5.92
2017-11-26T03:30:17.708Z,6.14
2017-11-26T03:31:17.637Z,6.25
2017-11-26T03:32:17.524Z,6.19
2017-11-26T03:33:17.438Z,6.09
2017-11-26T03:34:17.347Z,6.01
2017-11-26T03:35:17.263Z,5.86
2017-11-26T03:36:17.175Z,5.91
2017-11-26T03:37:17.076Z,6.01
2017-11-26T03:38:16.994Z,6.19
2017-11-26T03:39:16.904Z,6.29
2017-11-26T03:40:16.824Z,6.14
2017-11-26T03:41:16.748Z,6.18
2017-11-26T03:42:16.648Z,6.10
2017-11-26T03:43:16.547Z,6.19
2017-11-26T03:44:16.665Z,6.35
2017-11-26T03:45:16.365Z,6.35
2017-11-26T03:46:16.277Z,6.19
2017-11-26T03:47:16.191Z,6.19
2017-11-26T03:48:16.096Z,6.32
2017-11-26T03:49:16.012Z,6.13
2017-11-26T03:50:15.919Z,6.00
2017-11-26T03:51:15.834Z,6.07
2017-11-26T03:52:15.940Z,6.18
2017-11-26T03:53:15.660Z,6.33
2017-11-26T03:54:15.576Z,6.32
2017-11-26T03:55:15.477Z,6.36
2017-11-26T03:56:15.389Z,6.35
2017-11-26T03:57:15.311Z,6.35
2017-11-26T03:58:15.206Z,6.25
2017-11-26T03:59:15.124Z,6.30
2017-11-26T04:00:15.029Z,6.21
2017-11-26T04:01:14.941Z,6.36
2017-11-26T04:02:14.852Z,6.33
2017-11-26T04:03:14.757Z,6.19
2017-11-26T04:04:14.675Z,6.01
2017-11-26T04:05:14.594Z,5.93
2017-11-26T04:06:14.525Z,5.91
2017-11-26T04:07:14.404Z,6.10
2017-11-26T04:08:14.321Z,6.18
2017-11-26T04:09:14.227Z,5.96
2017-11-26T04:10:14.142Z,6.21
2017-11-26T04:11:14.048Z,6.18
2017-11-26T04:12:13.965Z,6.01
2017-11-26T04:13:13.880Z,6.11
2017-11-26T04:14:13.780Z,6.16
2017-11-26T04:15:13.689Z,6.26
2017-11-26T04:16:13.610Z,6.19
2017-11-26T04:17:13.515Z,6.14
2017-11-26T04:18:13.428Z,6.13
2017-11-26T04:19:13.344Z,6.19
2017-11-26T04:20:13.247Z,6.30
2017-11-26T04:21:13.157Z,6.21
2017-11-26T04:22:13.068Z,6.19
2017-11-26T04:23:12.977Z,6.32
2017-11-26T04:24:12.884Z,6.07
2017-11-26T04:25:12.802Z,6.14
2017-11-26T04:26:12.713Z,6.13
2017-11-26T04:27:12.617Z,6.29
2017-11-26T04:28:12.534Z,6.22
2017-11-26T04:29:12.450Z,6.09
2017-11-26T04:30:12.356Z,6.10
2017-11-26T04:31:12.281Z,6.19
2017-11-26T04:32:12.183Z,6.21
2017-11-26T04:33:12.091Z,6.13
2017-11-26T04:34:12.004Z,6.32
2017-11-26T04:35:11.912Z,6.33
2017-11-26T04:36:11.822Z,6.41
2017-11-26T04:37:11.740Z,6.19
2017-11-26T04:38:11.647Z,6.19
2017-11-26T04:39:11.558Z,6.10
2017-11-26T04:40:11.473Z,6.09
2017-11-26T04:41:11.370Z,6.04
2017-11-26T04:42:11.289Z,6.14
2017-11-26T04:43:11.267Z,6.33
2017-11-26T04:44:11.110Z,6.36
2017-11-26T04:45:11.020Z,6.43
2017-11-26T04:46:10.930Z,6.50
2017-11-26T04:47:10.840Z,6.44
2017-11-26T04:48:10.754Z,6.43
2017-11-26T04:49:10.662Z,6.22
2017-11-26T04:50:10.578Z,6.19
2017-11-26T04:51:10.485Z,6.16
2017-11-26T04:52:10.416Z,6.16
2017-11-26T04:53:10.308Z,6.16
2017-11-26T04:54:10.220Z,6.26
2017-11-26T04:55:10.143Z,6.46
2017-11-26T04:56:10.051Z,6.46
2017-11-26T04:57:09.974Z,6.36
2017-11-26T04:58:09.865Z,6.44
2017-11-26T04:59:09.778Z,6.43
2017-11-26T05:00:09.701Z,6.44
2017-11-26T05:01:09.599Z,6.40
2017-11-26T05:02:09.509Z,6.40
2017-11-26T05:03:09.425Z,6.43
2017-11-26T05:04:09.328Z,6.40
2017-11-26T05:05:09.236Z,6.18
2017-11-26T05:06:09.154Z,6.19
2017-11-26T05:07:09.066Z,6.46
2017-11-26T05:08:08.983Z,6.36
2017-11-26T05:09:08.888Z,6.25
2017-11-26T05:10:08.808Z,6.19
2017-11-26T05:11:08.722Z,6.33
2017-11-26T05:12:08.635Z,6.40
2017-11-26T05:13:08.544Z,6.22
2017-11-26T05:14:08.449Z,6.01
2017-11-26T05:15:08.354Z,6.07
2017-11-26T05:16:08.270Z,6.03
2017-11-26T05:17:08.172Z,6.13
2017-11-26T05:18:08.083Z,6.14
2017-11-26T05:19:07.992Z,6.14
2017-11-26T05:20:07.906Z,6.18
2017-11-26T05:21:07.813Z,6.07
2017-11-26T05:22:07.730Z,6.16
2017-11-26T05:23:07.633Z,6.22
2017-11-26T05:24:07.549Z,6.16
2017-11-26T05:25:07.456Z,6.10
2017-11-26T05:26:07.367Z,5.98
2017-11-26T05:27:07.278Z,5.98
2017-11-26T05:28:07.192Z,5.98
2017-11-26T05:29:07.103Z,6.10
2017-11-26T05:30:07.007Z,6.10
2017-11-26T05:31:06.922Z,5.93
2017-11-26T05:32:06.833Z,5.92
2017-11-26T05:33:06.739Z,5.75
2017-11-26T05:34:06.662Z,5.95
2017-11-26T05:35:06.569Z,5.92
2017-11-26T05:36:06.472Z,5.91
2017-11-26T05:37:06.376Z,5.98
2017-11-26T05:38:06.290Z,6.11
2017-11-26T05:39:06.204Z,6.10
2017-11-26T05:40:06.108Z,6.26
2017-11-26T05:41:06.022Z,6.14
2017-11-26T05:42:05.940Z,6.16
2017-11-26T05:43:05.852Z,5.81
2017-11-26T05:44:05.762Z,5.71
2017-11-26T05:45:05.668Z,5.92
2017-11-26T05:46:05.588Z,6.09
2017-11-26T05:47:05.488Z,6.19
2017-11-26T05:48:05.396Z,6.18
2017-11-26T05:49:05.303Z,6.30
2017-11-26T05:50:05.234Z,6.25
2017-11-26T05:51:05.136Z,6.16
2017-11-26T05:52:05.035Z,6.07
2017-11-26T05:53:04.946Z,6.19
2017-11-26T05:54:04.855Z,6.36
2017-11-26T05:55:04.786Z,6.38
2017-11-26T05:56:04.684Z,6.30
2017-11-26T05:57:04.594Z,6.16
2017-11-26T05:58:04.502Z,6.28
2017-11-26T05:59:04.412Z,6.10
2017-11-26T06:00:04.321Z,6.18
2017-11-26T06:01:04.235Z,6.28
2017-11-26T06:02:04.153Z,6.19
2017-11-26T06:03:04.054Z,6.14
2017-11-26T06:04:03.969Z,5.98
2017-11-26T06:05:03.877Z,6.00
2017-11-26T06:06:03.790Z,5.82
2017-11-26T06:07:03.697Z,5.91
2017-11-26T06:08:03.605Z,6.01
2017-11-26T06:09:03.520Z,6.07
2017-11-26T06:10:03.429Z,6.13
2017-11-26T06:11:03.342Z,6.30
2017-11-26T06:12:04.136Z,6.43
2017-11-26T06:13:03.166Z,6.41
2017-11-26T06:14:03.088Z,6.41
2017-11-26T06:15:02.988Z,6.38
2017-11-26T06:16:02.909Z,6.41
2017-11-26T06:17:02.804Z,6.28
2017-11-26T06:18:02.722Z,6.32
2017-11-26T06:19:02.625Z,6.09
2017-11-26T06:20:02.542Z,6.16
2017-11-26T06:21:02.461Z,6.10
2017-11-26T06:22:02.369Z,6.00
2017-11-26T06:23:02.292Z,6.06
2017-11-26T06:24:02.189Z,6.11
2017-11-26T06:25:02.107Z,6.13
2017-11-26T06:26:02.008Z,6.18
2017-11-26T06:27:01.917Z,5.85
2017-11-26T06:28:01.824Z,5.81
2017-11-26T06:29:01.738Z,6.04
2017-11-26T06:30:01.656Z,6.14
2017-11-26T06:31:01.568Z,6.22
2017-11-26T06:32:01.482Z,6.21
2017-11-26T06:33:01.388Z,6.33
2017-11-26T06:34:01.292Z,6.16
2017-11-26T06:35:01.205Z,6.07
2017-11-26T06:36:01.114Z,6.11
2017-11-26T06:37:01.024Z,6.25
2017-11-26T06:38:00.937Z,6.19
2017-11-26T06:39:00.846Z,6.19
2017-11-26T06:40:00.759Z,6.14
2017-11-26T06:41:00.669Z,6.19
2017-11-26T06:42:00.581Z,6.18
2017-11-26T06:43:00.497Z,6.18
2017-11-26T06:44:00.405Z,6.11
2017-11-26T06:45:00.309Z,6.22
2017-11-26T06:46:00.236Z,6.18
2017-11-26T06:47:00.135Z,6.14
2017-11-26T06:48:00.044Z,6.09
2017-11-26T06:48:59.960Z,6.04
2017-11-26T06:49:59.875Z,6.06
2017-11-26T06:50:59.777Z,6.10
2017-11-26T06:51:59.707Z,6.00
2017-11-26T06:52:59.596Z,6.09
2017-11-26T06:53:59.514Z,6.13
2017-11-26T06:54:59.440Z,5.92
2017-11-26T06:55:59.329Z,6.07
2017-11-26T06:56:59.243Z,6.04
2017-11-26T06:57:59.154Z,6.21
2017-11-26T06:58:59.070Z,6.18
2017-11-26T06:59:59.018Z,6.07
2017-11-26T07:00:58.893Z,6.07
2017-11-26T07:01:58.799Z,5.89
2017-11-26T07:02:58.707Z,5.91
2017-11-26T07:03:58.621Z,6.01
2017-11-26T07:04:58.528Z,6.06
2017-11-26T07:05:58.440Z,6.00
2017-11-26T07:06:58.354Z,6.11
2017-11-26T07:07:58.263Z,6.11
2017-11-26T07:08:58.176Z,5.95
2017-11-26T07:09:58.090Z,5.91
2017-11-26T07:10:58.730Z,5.77
2017-11-26T07:11:57.906Z,5.78
2017-11-26T07:12:57.840Z,5.75
2017-11-26T07:13:57.859Z,5.66
2017-11-26T07:14:57.647Z,5.88
2017-11-26T07:15:57.559Z,5.86
2017-11-26T07:16:57.478Z,5.95
2017-11-26T07:17:57.371Z,6.07
2017-11-26T07:18:57.279Z,5.95
2017-11-26T07:19:57.225Z,5.95
2017-11-26T07:20:57.100Z,6.01
2017-11-26T07:21:57.021Z,6.03
2017-11-26T07:22:56.926Z,6.11
2017-11-26T07:23:56.838Z,5.93
2017-11-26T07:24:56.741Z,5.95
2017-11-26T07:25:56.658Z,6.10
2017-11-26T07:26:56.572Z,6.21
2017-11-26T07:27:56.499Z,5.88
2017-11-26T07:28:56.395Z,5.91
2017-11-26T07:29:56.303Z,6.01
2017-11-26T07:30:56.222Z,6.16
2017-11-26T07:31:56.124Z,6.19
2017-11-26T07:32:56.040Z,5.67
2017-11-26T07:33:55.944Z,5.89
2017-11-26T07:34:55.872Z,6.03
2017-11-26T07:35:55.767Z,5.92
2017-11-26T07:36:55.684Z,5.93
2017-11-26T07:37:55.582Z,6.01
2017-11-26T07:38:55.499Z,6.18
2017-11-26T07:39:55.421Z,6.13
2017-11-26T07:40:55.321Z,5.70
2017-11-26T07:41:55.235Z,5.91
2017-11-26T07:42:55.163Z,6.01
2017-11-26T07:43:55.056Z,5.96
2017-11-26T07:44:54.975Z,5.86
2017-11-26T07:45:54.878Z,5.88
2017-11-26T07:46:54.787Z,5.77
2017-11-26T07:47:54.697Z,5.68
2017-11-26T07:48:54.635Z,5.93
2017-11-26T07:49:54.517Z,5.91
2017-11-26T07:50:54.441Z,6.13
2017-11-26T07:51:54.340Z,5.88
2017-11-26T07:52:54.248Z,5.82
2017-11-26T07:53:54.162Z,5.83
2017-11-26T07:54:54.065Z,5.98
2017-11-26T07:55:53.976Z,6.14
2017-11-26T07:56:53.894Z,5.98
2017-11-26T07:57:53.803Z,5.92
2017-11-26T07:58:53.722Z,5.92
2017-11-26T07:59:53.621Z,5.92
2017-11-26T08:00:53.544Z,5.85
2017-11-26T08:01:53.472Z,5.63
2017-11-26T08:02:53.360Z,5.92
2017-11-26T08:03:53.261Z,5.98
2017-11-26T08:04:53.169Z,6.11
2017-11-26T08:05:53.091Z,6.14
2017-11-26T08:06:52.994Z,6.18
2017-11-26T08:07:52.901Z,6.16
2017-11-26T08:08:52.813Z,6.13
2017-11-26T08:09:53.318Z,6.19
2017-11-26T08:10:52.636Z,6.30
2017-11-26T08:11:52.548Z,6.33
2017-11-26T08:12:52.454Z,6.30
2017-11-26T08:13:52.373Z,6.14
2017-11-26T08:14:52.277Z,6.14
2017-11-26T08:15:52.190Z,6.32
2017-11-26T08:16:52.114Z,6.44
2017-11-26T08:17:52.020Z,6.36
2017-11-26T08:18:51.929Z,6.21
2017-11-26T08:19:51.836Z,6.16
2017-11-26T08:20:51.743Z,6.35
2017-11-26T08:21:51.668Z,6.26
2017-11-26T08:22:51.577Z,6.13
2017-11-26T08:23:51.485Z,6.28
2017-11-26T08:24:51.385Z,6.06
2017-11-26T08:25:51.300Z,5.98
2017-11-26T08:26:51.212Z,6.13
2017-11-26T08:27:51.125Z,6.36
2017-11-26T08:28:51.032Z,6.01
2017-11-26T08:29:50.957Z,6.13
2017-11-26T08:30:50.854Z,6.19
2017-11-26T08:31:50.763Z,6.16
2017-11-26T08:32:50.670Z,6.32
2017-11-26T08:33:50.603Z,6.29
2017-11-26T08:34:50.497Z,6.40
2017-11-26T08:35:50.413Z,6.19
2017-11-26T08:36:50.318Z,6.22
2017-11-26T08:37:50.246Z,6.36
2017-11-26T08:38:50.141Z,6.11
2017-11-26T08:39:50.050Z,6.11
2017-11-26T08:40:49.961Z,6.14
2017-11-26T08:41:49.879Z,6.13
2017-11-26T08:42:49.841Z,6.01
2017-11-26T08:43:49.693Z,6.16
2017-11-26T08:44:49.607Z,6.14
2017-11-26T08:45:49.518Z,6.19
2017-11-26T08:46:49.429Z,6.18
2017-11-26T08:47:49.339Z,6.06
2017-11-26T08:48:49.260Z,6.14
2017-11-26T08:49:49.156Z,5.88
2017-11-26T08:50:49.065Z,6.01
2017-11-26T08:51:48.987Z,6.11
2017-11-26T08:52:48.885Z,6.16
2017-11-26T08:53:48.799Z,6.26
2017-11-26T08:54:48.722Z,6.14
2017-11-26T08:55:48.628Z,6.36
2017-11-26T08:56:48.543Z,6.35
2017-11-26T08:57:48.438Z,6.43
2017-11-26T08:58:48.363Z,6.40
2017-11-26T08:59:48.264Z,6.46
2017-11-26T09:00:48.178Z,6.44
2017-11-26T09:01:48.093Z,6.33
2017-11-26T09:02:47.999Z,6.26
2017-11-26T09:03:47.910Z,6.30
2017-11-26T09:04:47.822Z,6.22
2017-11-26T09:05:47.743Z,6.25
2017-11-26T09:06:47.676Z,6.33
2017-11-26T09:07:47.562Z,6.41
2017-11-26T09:08:47.904Z,6.35
2017-11-26T09:09:47.378Z,6.33
2017-11-26T09:10:47.303Z,6.38
2017-11-26T09:11:47.199Z,6.36
2017-11-26T09:12:49.053Z,6.69
2017-11-26T09:13:47.021Z,6.48
2017-11-26T09:14:46.932Z,6.66
2017-11-26T09:15:46.868Z,6.71
2017-11-26T09:16:46.761Z,6.51
2017-11-26T09:17:46.670Z,6.28
2017-11-26T09:18:46.575Z,6.38
2017-11-26T09:19:46.487Z,6.41
2017-11-26T09:20:46.410Z,6.18
2017-11-26T09:21:46.311Z,6.36
2017-11-26T09:22:46.223Z,6.19
2017-11-26T09:23:46.141Z,6.63
2017-11-26T09:24:46.045Z,6.41
2017-11-26T09:25:45.952Z,6.59
2017-11-26T09:26:45.864Z,6.68
2017-11-26T09:27:45.780Z,6.61
2017-11-26T09:28:45.688Z,6.77
2017-11-26T09:29:45.615Z,6.81
2017-11-26T09:30:45.527Z,6.41
2017-11-26T09:31:45.430Z,6.56
2017-11-26T09:32:45.336Z,6.48
2017-11-26T09:33:45.246Z,6.62
2017-11-26T09:34:45.161Z,6.16
2017-11-26T09:35:45.100Z,6.43
2017-11-26T09:36:44.992Z,6.58
2017-11-26T09:37:44.899Z,6.54
2017-11-26T09:38:44.826Z,6.16
2017-11-26T09:39:44.721Z,5.83
2017-11-26T09:40:44.625Z,5.66
2017-11-26T09:41:44.529Z,5.63
2017-11-26T09:42:44.450Z,5.57
2017-11-26T09:43:44.355Z,5.59
2017-11-26T09:44:44.270Z,5.96
2017-11-26T09:45:44.175Z,6.13
2017-11-26T09:46:44.088Z,6.38
2017-11-26T09:47:43.992Z,6.18
2017-11-26T09:48:43.906Z,5.89
2017-11-26T09:49:43.817Z,5.96
2017-11-26T09:50:43.730Z,6.01
2017-11-26T09:51:43.633Z,6.18
2017-11-26T09:52:43.545Z,6.18
2017-11-26T09:53:43.459Z,6.06
2017-11-26T09:54:43.368Z,5.89
2017-11-26T09:55:43.278Z,6.14
2017-11-26T09:56:43.186Z,6.28
2017-11-26T09:57:43.104Z,6.35
2017-11-26T09:58:43.020Z,6.19
2017-11-26T09:59:42.910Z,6.11
2017-11-26T10:00:42.833Z,6.18
2017-11-26T10:01:42.748Z,6.18
2017-11-26T10:02:42.651Z,6.21
2017-11-26T10:03:42.556Z,6.18
2017-11-26T10:04:42.467Z,6.14
2017-11-26T10:05:42.385Z,5.82
2017-11-26T10:06:42.297Z,5.92
2017-11-26T10:07:42.505Z,6.25
2017-11-26T10:08:42.107Z,6.44
2017-11-26T10:09:42.032Z,6.65
2017-11-26T10:10:41.933Z,6.69
2017-11-26T10:11:41.847Z,7.20
2017-11-26T10:12:41.765Z,7.35
2017-11-26T10:13:41.667Z,7.37
2017-11-26T10:14:41.602Z,6.95
2017-11-26T10:15:41.482Z,7.05
2017-11-26T10:16:41.389Z,6.91
2017-11-26T10:17:41.311Z,7.01
2017-11-26T10:18:41.219Z,7.13
2017-11-26T10:19:41.140Z,7.27
2017-11-26T10:20:41.046Z,7.31
2017-11-26T10:21:40.957Z,7.31
2017-11-26T10:22:40.864Z,6.98
2017-11-26T10:23:40.783Z,7.07
2017-11-26T10:24:40.700Z,6.98
2017-11-26T10:25:40.601Z,6.86
2017-11-26T10:26:40.516Z,6.83
2017-11-26T10:27:40.421Z,6.79
2017-11-26T10:28:40.338Z,6.71
2017-11-26T10:29:40.254Z,6.87
2017-11-26T10:30:40.153Z,6.99
2017-11-26T10:31:40.071Z,6.90
2017-11-26T10:32:40.017Z,6.77
2017-11-26T10:33:39.905Z,6.89
2017-11-26T10:34:39.821Z,6.83
2017-11-26T10:35:39.721Z,6.86
2017-11-26T10:36:39.625Z,6.77
2017-11-26T10:37:39.539Z,6.63
2017-11-26T10:38:39.481Z,6.53
2017-11-26T10:39:39.382Z,6.76
2017-11-26T10:40:39.268Z,6.79
2017-11-26T10:41:39.182Z,6.81
2017-11-26T10:42:39.098Z,6.72
2017-11-26T10:43:39.007Z,6.59
2017-11-26T10:44:38.912Z,6.40
2017-11-26T10:45:38.831Z,6.53
2017-11-26T10:46:38.765Z,6.44
2017-11-26T10:47:38.645Z,6.54
2017-11-26T10:48:38.558Z,6.65
2017-11-26T10:49:38.477Z,6.56
2017-11-26T10:50:38.386Z,6.59
2017-11-26T10:51:38.287Z,6.71
2017-11-26T10:52:38.193Z,6.66
2017-11-26T10:53:38.105Z,6.86
2017-11-26T10:54:38.030Z,6.72
2017-11-26T10:55:37.935Z,6.58
2017-11-26T10:56:37.847Z,6.71
2017-11-26T10:57:37.745Z,6.63
2017-11-26T10:58:37.690Z,6.63
2017-11-26T10:59:37.573Z,6.65
2017-11-26T11:00:37.478Z,6.61
2017-11-26T11:01:37.398Z,6.21
2017-11-26T11:02:37.306Z,6.35
2017-11-26T11:03:37.212Z,6.40
2017-11-26T11:04:37.125Z,6.56
2017-11-26T11:05:37.036Z,6.71
2017-11-26T11:06:37.060Z,6.79
2017-11-26T11:07:36.868Z,6.87
2017-11-26T11:08:36.777Z,7.08
2017-11-26T11:09:36.695Z,6.65
2017-11-26T11:10:36.598Z,6.68
2017-11-26T11:11:36.503Z,6.51
2017-11-26T11:12:36.416Z,6.69
2017-11-26T11:13:36.329Z,6.68
2017-11-26T11:14:36.240Z,6.41
2017-11-26T11:15:36.144Z,6.50
2017-11-26T11:16:36.071Z,6.68
2017-11-26T11:17:35.973Z,6.83
2017-11-26T11:18:35.892Z,6.69
2017-11-26T11:19:35.786Z,6.77
2017-11-26T11:20:35.696Z,6.89
2017-11-26T11:21:35.612Z,6.98
2017-11-26T11:22:35.522Z,6.87
2017-11-26T11:23:35.433Z,6.97
2017-11-26T11:24:35.340Z,6.94
2017-11-26T11:25:35.318Z,6.98
2017-11-26T11:26:35.173Z,7.05
2017-11-26T11:27:35.078Z,7.07
2017-11-26T11:28:34.991Z,7.02
2017-11-26T11:29:34.907Z,7.16
2017-11-26T11:30:34.821Z,7.08
2017-11-26T11:31:34.728Z,6.95
2017-11-26T11:32:34.636Z,6.99
2017-11-26T11:33:34.543Z,7.01
2017-11-26T11:34:34.532Z,7.07
2017-11-26T11:35:34.371Z,6.99
2017-11-26T11:36:34.277Z,6.95
2017-11-26T11:37:34.191Z,7.02
2017-11-26T11:38:34.093Z,7.01
2017-11-26T11:39:34.012Z,7.07
2017-11-26T11:40:33.925Z,7.07
2017-11-26T11:41:33.836Z,7.04
2017-11-26T11:42:33.742Z,7.26
2017-11-26T11:43:33.655Z,7.42
2017-11-26T11:44:33.586Z,7.55
2017-11-26T11:45:33.494Z,7.72
2017-11-26T11:46:33.401Z,8.03
2017-11-26T11:47:33.300Z,8.26
2017-11-26T11:48:33.208Z,8.32
2017-11-26T11:49:33.142Z,8.21
2017-11-26T11:50:33.055Z,7.78
2017-11-26T11:51:32.944Z,7.99
2017-11-26T11:52:32.859Z,8.20
2017-11-26T11:53:32.837Z,8.20
2017-11-26T11:54:32.688Z,8.12
2017-11-26T11:55:32.595Z,8.04
2017-11-26T11:56:32.513Z,7.63
2017-11-26T11:57:32.417Z,7.96
2017-11-26T11:58:32.335Z,7.90
2017-11-26T11:59:32.246Z,7.94
2017-11-26T12:00:32.159Z,7.77
2017-11-26T12:01:32.097Z,7.90
2017-11-26T12:02:31.977Z,7.93
2017-11-26T12:03:31.890Z,7.90
2017-11-26T12:04:31.817Z,7.82
2017-11-26T12:05:31.717Z,7.89
2017-11-26T12:06:31.628Z,7.75
2017-11-26T12:07:31.560Z,7.60
2017-11-26T12:08:31.449Z,7.58
2017-11-26T12:09:31.408Z,7.63
2017-11-26T12:10:31.284Z,7.72
2017-11-26T12:11:31.196Z,7.29
2017-11-26T12:12:31.104Z,7.35
2017-11-26T12:13:31.019Z,7.52
2017-11-26T12:14:30.919Z,7.56
2017-11-26T12:15:30.835Z,7.50
2017-11-26T12:16:30.747Z,7.66
2017-11-26T12:17:30.657Z,7.82
2017-11-26T12:18:30.572Z,7.82
2017-11-26T12:19:30.481Z,7.89
2017-11-26T12:20:30.397Z,7.84
2017-11-26T12:21:30.305Z,7.82
2017-11-26T12:22:30.223Z,7.69
2017-11-26T12:23:30.158Z,7.78
2017-11-26T12:24:30.064Z,7.79
2017-11-26T12:25:29.967Z,7.71
2017-11-26T12:26:29.867Z,7.71
2017-11-26T12:27:29.786Z,7.90
2017-11-26T12:28:29.699Z,7.67
2017-11-26T12:29:29.604Z,7.85
2017-11-26T12:30:29.515Z,7.81
2017-11-26T12:31:29.426Z,7.92
2017-11-26T12:32:29.336Z,7.84
2017-11-26T12:33:29.250Z,7.96
2017-11-26T12:34:29.163Z,7.92
2017-11-26T12:35:29.894Z,7.85
2017-11-26T12:36:28.988Z,7.90
2017-11-26T12:37:28.895Z,7.93
2017-11-26T12:38:28.809Z,7.85
2017-11-26T12:39:28.730Z,7.75
2017-11-26T12:40:28.626Z,7.77
2017-11-26T12:41:28.535Z,7.62
2017-11-26T12:42:28.452Z,7.55
2017-11-26T12:43:28.363Z,7.78
2017-11-26T12:44:28.281Z,7.87
2017-11-26T12:45:28.179Z,7.69
2017-11-26T12:46:28.098Z,7.72
2017-11-26T12:47:28.001Z,7.66
2017-11-26T12:48:27.912Z,7.60
2017-11-26T12:49:27.829Z,7.71
2017-11-26T12:50:27.742Z,7.53
2017-11-26T12:51:27.651Z,7.52
2017-11-26T12:52:27.575Z,7.50
2017-11-26T12:53:27.486Z,7.38
2017-11-26T12:54:27.385Z,7.59
2017-11-26T12:55:27.339Z,7.53
2017-11-26T12:56:27.207Z,7.53
2017-11-26T12:57:27.125Z,7.60
2017-11-26T12:58:27.035Z,7.56
2017-11-26T12:59:26.945Z,7.56
2017-11-26T13:00:26.858Z,7.42
2017-11-26T13:01:26.762Z,7.62
2017-11-26T13:02:26.675Z,7.79
2017-11-26T13:03:26.578Z,7.74
2017-11-26T13:04:26.504Z,7.55
2017-11-26T13:05:26.407Z,7.56
2017-11-26T13:06:26.324Z,7.56
2017-11-26T13:07:26.235Z,7.53
2017-11-26T13:08:26.143Z,7.52
2017-11-26T13:09:26.061Z,7.59
2017-11-26T13:10:25.965Z,7.24
2017-11-26T13:11:25.870Z,7.26
2017-11-26T13:12:25.786Z,7.32
2017-11-26T13:13:25.699Z,7.04
2017-11-26T13:14:25.611Z,7.34
2017-11-26T13:15:25.518Z,7.15
2017-11-26T13:16:25.429Z,7.16
2017-11-26T13:17:25.346Z,7.05